Carbondale, IL

5:25 AM CDT on September 30, 2014 (GMT -0500)
Carbondale City Hall | Change Station
CLOSE
Current Station
Personal Weather Station
Location: Carbondale, IL
Elevation: 430 ft
Nearby Weather Stations
Active Advisory: Special Statement

Elev 430 ft 37.73 °N, 89.22 °W | Updated 25 minutes ago

Clear
Clear
61.5 °F
Feels Like 61.5 °F
N
0.0
Wind Variable Wind from West
Gusts 0.0 mph

Today
High -- | Low -- °F
--% Chance of Precip.
Yesterday
High -- | Low -- °F
Precip. -- in
6:51 AM 6:41 PM
Waxing Crescent, 35% visible
Pressure 29.94 in
Visibility 5.0 miles
Clouds Clear
Dew Point 57 °F
Humidity 86%
Rainfall 0.00 in
Snow Depth Not available.
UV 0 out of 12
Pollen 5.60 out of 12
Air Quality Not available.
Flu Activity Not available.
METAR KMDH 300952Z AUTO 00000KT 5SM BR CLR 12/12 A2995 RMK AO2 SLP139 T01220117

More Conditions Fewer Conditions

Pressure 29.94 in
Visibility 5.0 miles
Clouds Clear
Dew Point 57 °F
Humidity 86%
Rainfall 0.00 in
Snow Depth Not available.
UV 0 out of 12
Pollen 5.60 out of 12
Air Quality Not available.
Flu Activity Not available.
METAR KMDH 300952Z AUTO 00000KT 5SM BR CLR 12/12 A2995 RMK AO2 SLP139 T01220117

More Conditions Fewer Conditions

10-Day Weather Forecast

Almanac

Astronomy

Sep. 30, 2014 Rise Set
Actual Time 6:51 AM CDT 6:41 PM CDT
Civil Twilight 6:25 AM CDT 7:07 PM CDT
Nautical Twilight 5:55 AM CDT 7:37 PM CDT
Astronomical Twilight 5:24 AM CDT 8:08 PM CDT
Moon 12:54 PM CDT 11:16 PM CDT
Length of Visible Light 12h 42m
Length of Day
11h 49m
Tomorrow will be 2m 23s shorter.
Waxing Crescent, 35% of the Moon is Illuminated
Today
Waxing Crescent
Oct 1
First Quarter
Oct 8
Full
Oct 15
Last Quarter
Oct 23
New

Today's Extremes

State Highs State Lows

Community

WunderPhotos

Upload Photos

1,757,610 photos uploaded!

WunderBlogs® & News

Nearby

Snow Depth

Station Depth Elevation
No new snow has been reported.

Earthquake Activity

City Distance Mag. Time & Date
No recent earthquake activity has been reported nearby.
Minimum magnitude displayed is 2.5.

Coastal Water Temperatures

Place Temperature
No Stations Reporting

Nearby Weather Stations